Time;durP1;ratioP1;P1;durP2;ratioP2;P2;SDS_P1;SDS_P2;PMS_P1;PMS_P2;Temp;Humidity;BMP_temperature;BMP_pressure;BME280_temperature;BME280_humidity;BME280_pressure;Samples;Min_cycle;Max_cycle;Signal;HPM_P1;HPM_P2
2022/01/31 00:01:03;;;;;;;18.00;5.40;;;6.50;71.10;;;;;;5051891;28;20348;-68
2022/01/31 00:03:30;;;;;;;17.00;5.72;;;6.50;71.20;;;;;;5049666;28;20048;-68
2022/01/31 00:05:56;;;;;;;24.65;6.90;;;6.50;71.40;;;;;;5051387;28;20112;-68
2022/01/31 00:08:24;;;;;;;19.08;6.47;;;6.50;71.40;;;;;;5050189;28;20075;-68
2022/01/31 00:10:50;;;;;;;16.23;5.63;;;6.50;71.50;;;;;;5051448;28;20051;-68
2022/01/31 00:13:24;;;;;;;16.17;5.80;;;6.50;71.70;;;;;;5051293;28;20472;-68
2022/01/31 00:15:54;;;;;;;19.42;6.55;;;6.40;71.90;;;;;;5051150;28;20039;-68
2022/01/31 00:18:21;;;;;;;16.00;5.68;;;6.40;72.10;;;;;;5049343;28;20388;-67
2022/01/31 00:20:47;;;;;;;22.63;7.38;;;6.40;72.20;;;;;;5049976;28;20061;-68
2022/01/31 00:23:12;;;;;;;13.57;5.57;;;6.40;72.30;;;;;;5049734;28;20079;-68
2022/01/31 00:25:38;;;;;;;19.85;6.50;;;6.40;72.30;;;;;;5050921;28;20029;-68
2022/01/31 00:28:04;;;;;;;19.95;6.80;;;6.40;72.50;;;;;;5050494;28;20017;-68
2022/01/31 00:30:29;;;;;;;18.17;6.65;;;6.40;72.70;;;;;;5048614;28;20519;-68
2022/01/31 00:32:55;;;;;;;13.95;5.97;;;6.40;72.80;;;;;;5049581;28;20025;-68
2022/01/31 00:35:21;;;;;;;21.52;6.05;;;6.40;73.00;;;;;;5050564;28;20033;-68
2022/01/31 00:37:47;;;;;;;15.07;5.90;;;6.40;73.00;;;;;;5050464;28;20032;-68
2022/01/31 00:40:13;;;;;;;16.67;6.18;;;6.40;73.10;;;;;;5050778;28;20025;-68
2022/01/31 00:42:39;;;;;;;16.65;5.65;;;6.40;73.10;;;;;;5050803;28;20024;-68
2022/01/31 00:45:13;;;;;;;23.42;7.00;;;6.40;73.20;;;;;;5049156;28;20025;-68
2022/01/31 00:47:43;;;;;;;17.15;5.75;;;6.40;73.70;;;;;;5049711;28;20439;-68
2022/01/31 00:50:12;;;;;;;23.42;6.15;;;6.40;73.90;;;;;;5050602;28;20024;-68
2022/01/31 00:52:40;;;;;;;21.90;6.30;;;6.30;74.50;;;;;;5050615;28;20075;-68
2022/01/31 00:55:08;;;;;;;19.75;6.50;;;6.40;75.10;;;;;;5050653;28;20028;-69
2022/01/31 00:57:33;;;;;;;17.48;7.60;;;6.30;75.90;;;;;;5048409;28;20503;-68
2022/01/31 00:59:59;;;;;;;24.17;6.13;;;6.20;76.20;;;;;;5051182;28;20029;-68
2022/01/31 01:02:26;;;;;;;14.02;6.53;;;6.20;76.70;;;;;;5050289;28;20029;-69
2022/01/31 01:04:52;;;;;;;23.33;7.03;;;6.20;77.20;;;;;;5048694;28;20033;-69
2022/01/31 01:07:22;;;;;;;24.65;6.40;;;6.10;77.50;;;;;;5049995;28;20049;-69
2022/01/31 01:09:48;;;;;;;23.08;7.00;;;6.10;77.90;;;;;;5050282;28;20029;-69
2022/01/31 01:12:15;;;;;;;22.27;7.10;;;6.10;78.30;;;;;;5050062;28;20044;-69
2022/01/31 01:14:42;;;;;;;19.35;6.75;;;6.10;78.80;;;;;;5048952;28;20035;-69
2022/01/31 01:17:08;;;;;;;18.30;6.70;;;6.10;78.90;;;;;;5049988;28;20519;-69
2022/01/31 01:19:33;;;;;;;23.00;6.93;;;6.00;79.20;;;;;;5049071;28;20033;-67
2022/01/31 01:22:00;;;;;;;19.48;6.47;;;6.00;79.30;;;;;;5048995;28;20434;-67
2022/01/31 01:24:26;;;;;;;22.05;8.07;;;6.00;79.70;;;;;;5049912;28;20029;-67
2022/01/31 01:26:51;;;;;;;22.00;7.38;;;6.00;80.20;;;;;;5049593;28;20040;-67
2022/01/31 01:29:19;;;;;;;17.58;6.70;;;5.90;80.60;;;;;;5049486;28;20093;-67
2022/01/31 01:31:46;;;;;;;24.88;7.65;;;5.90;80.50;;;;;;5049909;28;20025;-67
2022/01/31 01:34:12;;;;;;;15.75;7.28;;;5.90;81.00;;;;;;5047835;28;20112;-67
2022/01/31 01:36:38;;;;;;;21.67;8.07;;;5.90;81.50;;;;;;5049905;28;20091;-67
2022/01/31 01:39:05;;;;;;;16.67;7.70;;;5.90;81.70;;;;;;5049331;28;20021;-67
2022/01/31 01:41:31;;;;;;;23.25;7.65;;;5.90;82.10;;;;;;5049460;28;20025;-67
2022/01/31 01:43:57;;;;;;;20.50;7.40;;;5.80;82.40;;;;;;5049677;28;20031;-68
2022/01/31 01:46:23;;;;;;;16.55;6.80;;;5.80;82.70;;;;;;5049405;28;20017;-67
2022/01/31 01:48:48;;;;;;;19.85;8.02;;;5.70;83.10;;;;;;5048843;28;20108;-67
2022/01/31 01:51:14;;;;;;;19.13;7.40;;;5.70;83.60;;;;;;5048429;28;20032;-67
2022/01/31 01:53:40;;;;;;;17.10;6.50;;;5.60;83.90;;;;;;5049205;28;20032;-67
2022/01/31 01:56:06;;;;;;;14.50;7.07;;;5.50;84.10;;;;;;5049602;28;20029;-67
2022/01/31 01:58:38;;;;;;;20.23;7.93;;;5.50;84.40;;;;;;5049153;28;20033;-68
2022/01/31 02:01:05;;;;;;;14.57;7.13;;;5.50;84.20;;;;;;5048420;28;20025;-67
2022/01/31 02:03:33;;;;;;;17.40;7.30;;;5.40;84.40;;;;;;5049170;28;20090;-67
2022/01/31 02:05:59;;;;;;;17.52;7.63;;;5.40;84.70;;;;;;5048316;28;20060;-68
2022/01/31 02:08:27;;;;;;;15.23;7.35;;;5.40;84.80;;;;;;5046997;28;20095;-67
2022/01/31 02:10:53;;;;;;;12.50;6.40;;;5.50;84.90;;;;;;5049368;28;20424;-67
2022/01/31 02:13:19;;;;;;;13.65;5.97;;;5.50;85.70;;;;;;5049339;28;20059;-68
2022/01/31 02:15:49;;;;;;;12.15;6.72;;;5.50;84.90;;;;;;5049376;28;20025;-67
2022/01/31 02:18:16;;;;;;;13.50;6.70;;;5.50;85.10;;;;;;5048320;28;20028;-67
2022/01/31 02:20:42;;;;;;;16.65;7.07;;;5.50;85.20;;;;;;5049312;28;20311;-68
2022/01/31 02:23:13;;;;;;;18.15;8.13;;;5.60;85.50;;;;;;5047938;28;20033;-67
2022/01/31 02:26:02;;;;;;;14.00;6.70;;;5.60;85.60;;;;;;5049512;28;20033;-67
2022/01/31 02:28:30;;;;;;;13.40;7.05;;;5.60;85.80;;;;;;5048381;28;20519;-67
2022/01/31 02:30:56;;;;;;;17.08;7.07;;;5.60;86.10;;;;;;5049282;28;20017;-67
2022/01/31 02:33:23;;;;;;;16.70;7.57;;;5.70;86.20;;;;;;5048457;28;20055;-67
2022/01/31 02:35:52;;;;;;;18.70;7.88;;;5.70;86.60;;;;;;5049392;28;20029;-68
2022/01/31 02:38:17;;;;;;;18.23;9.38;;;5.70;86.70;;;;;;5047593;28;20086;-67
2022/01/31 02:40:45;;;;;;;17.42;8.25;;;5.70;87.00;;;;;;5047494;28;20033;-67
2022/01/31 02:43:12;;;;;;;17.85;8.30;;;5.70;87.10;;;;;;5049003;28;20033;-68
2022/01/31 02:45:38;;;;;;;15.25;7.38;;;5.70;87.20;;;;;;5049150;28;20032;-68
2022/01/31 02:48:04;;;;;;;18.33;8.82;;;5.70;87.30;;;;;;5047829;28;20041;-68
2022/01/31 02:50:31;;;;;;;16.95;7.95;;;5.80;87.50;;;;;;5049140;28;20025;-68
2022/01/31 02:53:24;;;;;;;17.50;8.73;;;5.80;87.60;;;;;;5048897;28;20033;-68
2022/01/31 02:55:51;;;;;;;19.77;8.57;;;5.80;87.80;;;;;;5053008;28;20411;-68
2022/01/31 02:58:17;;;;;;;15.77;8.05;;;5.80;88.00;;;;;;5050944;28;20025;-68
2022/01/31 03:00:43;;;;;;;13.45;7.10;;;5.80;88.00;;;;;;5052578;28;20037;-68
2022/01/31 03:03:09;;;;;;;14.25;7.80;;;5.90;87.90;;;;;;5051945;28;20108;-68
2022/01/31 03:05:35;;;;;;;16.42;6.85;;;5.90;88.10;;;;;;5052651;28;20064;-68
2022/01/31 03:08:02;;;;;;;14.15;6.65;;;5.90;88.40;;;;;;5052028;28;20049;-70
2022/01/31 03:10:28;;;;;;;11.20;6.10;;;5.90;88.60;;;;;;5052518;28;20033;-68
2022/01/31 03:12:53;;;;;;;11.48;5.60;;;6.00;88.70;;;;;;5050768;28;20496;-68
2022/01/31 03:15:19;;;;;;;9.95;5.90;;;6.10;88.90;;;;;;5052472;28;20035;-68
2022/01/31 03:17:49;;;;;;;14.30;6.22;;;6.10;88.90;;;;;;5051461;28;20112;-68
2022/01/31 03:20:17;;;;;;;12.57;5.25;;;6.10;89.20;;;;;;5052447;28;20033;-68
2022/01/31 03:22:43;;;;;;;11.77;5.40;;;6.20;89.90;;;;;;5052282;28;20373;-68
2022/01/31 03:25:09;;;;;;;12.75;5.70;;;6.20;89.40;;;;;;5050756;28;20083;-67
2022/01/31 03:27:34;;;;;;;15.60;4.68;;;6.20;89.70;;;;;;5051422;28;20504;-67
2022/01/31 03:30:00;;;;;;;19.33;5.32;;;6.20;90.00;;;;;;5052385;28;20056;-67
2022/01/31 03:32:26;;;;;;;13.40;5.32;;;6.30;90.20;;;;;;5051832;28;20021;-68
2022/01/31 03:34:52;;;;;;;16.42;4.50;;;6.30;90.10;;;;;;5052046;28;20044;-68
2022/01/31 03:37:17;;;;;;;13.23;4.60;;;6.30;90.00;;;;;;5051730;28;20554;-68
2022/01/31 03:39:43;;;;;;;14.32;5.05;;;6.40;90.00;;;;;;5051905;28;20029;-68
2022/01/31 03:42:09;;;;;;;13.38;4.80;;;6.40;90.00;;;;;;5052268;28;20029;-68
2022/01/31 03:44:35;;;;;;;12.40;4.30;;;6.40;89.80;;;;;;5051668;28;20079;-69
2022/01/31 03:47:00;;;;;;;16.98;4.75;;;6.50;89.80;;;;;;5051900;28;20021;-67
2022/01/31 03:49:26;;;;;;;10.95;3.85;;;6.50;89.70;;;;;;5050835;28;20103;-68
2022/01/31 03:51:52;;;;;;;12.93;3.85;;;6.50;89.60;;;;;;5051722;28;20044;-68
2022/01/31 03:54:17;;;;;;;16.70;3.63;;;6.60;89.50;;;;;;5051403;28;20040;-71
2022/01/31 03:56:43;;;;;;;14.43;3.25;;;6.60;89.40;;;;;;5051553;28;20508;-70
2022/01/31 03:59:09;;;;;;;13.70;2.95;;;6.60;89.30;;;;;;5051205;28;20025;-70
2022/01/31 04:01:35;;;;;;;17.05;3.55;;;6.60;89.70;;;;;;5033716;28;20025;-70
2022/01/31 04:04:00;;;;;;;14.25;3.10;;;6.60;89.10;;;;;;5051471;28;20051;-70
2022/01/31 04:06:26;;;;;;;14.45;2.75;;;6.70;89.00;;;;;;5051054;28;20081;-68
2022/01/31 04:08:52;;;;;;;16.55;3.78;;;6.60;88.80;;;;;;5050738;28;20128;-68
2022/01/31 04:11:18;;;;;;;18.23;2.83;;;6.70;88.70;;;;;;5050257;28;20590;-67
2022/01/31 04:13:44;;;;;;;17.70;3.08;;;6.70;88.50;;;;;;5049992;28;20053;-68
2022/01/31 04:16:10;;;;;;;15.18;2.58;;;6.70;88.30;;;;;;5049953;28;20373;-68
2022/01/31 04:18:35;;;;;;;11.50;2.65;;;6.80;88.10;;;;;;5050060;28;20041;-68
2022/01/31 04:21:01;;;;;;;10.00;2.53;;;6.80;88.00;;;;;;5051555;28;20396;-68
2022/01/31 04:23:28;;;;;;;14.32;2.75;;;6.80;87.70;;;;;;5051026;28;20024;-68
2022/01/31 04:26:02;;;;;;;14.68;3.08;;;6.70;87.40;;;;;;5050952;28;20495;-68
2022/01/31 04:28:39;;;;;;;14.15;3.10;;;6.80;87.40;;;;;;5050531;28;20029;-68
2022/01/31 04:31:36;;;;;;;15.30;2.92;;;6.80;87.20;;;;;;5051188;28;20461;-68
2022/01/31 04:33:51;;;;;;;15.10;3.15;;;6.80;87.10;;;;;;5050205;28;20033;-68
2022/01/31 04:36:18;;;;;;;16.67;3.35;;;6.80;86.90;;;;;;5051105;28;20446;-68
2022/01/31 04:38:48;;;;;;;17.15;3.88;;;6.80;86.60;;;;;;5049737;28;20392;-69
2022/01/31 04:41:14;;;;;;;12.57;3.20;;;6.80;86.40;;;;;;5050757;28;20079;-68
2022/01/31 04:43:40;;;;;;;13.80;2.95;;;6.80;86.50;;;;;;5049239;28;20431;-69
2022/01/31 04:46:07;;;;;;;16.55;2.83;;;6.80;86.40;;;;;;5050747;28;20036;-68
2022/01/31 04:48:34;;;;;;;21.98;3.08;;;6.80;86.20;;;;;;5044155;28;20610;-68
2022/01/31 04:51:00;;;;;;;13.70;2.55;;;6.80;86.20;;;;;;5039045;28;20096;-69
2022/01/31 04:53:26;;;;;;;22.65;3.75;;;6.80;86.10;;;;;;5049753;28;20251;-68
2022/01/31 04:55:52;;;;;;;16.42;2.70;;;6.80;85.70;;;;;;5049216;28;20539;-69
2022/01/31 04:58:22;;;;;;;18.92;2.95;;;6.80;85.50;;;;;;5049980;28;20443;-68
2022/01/31 05:00:48;;;;;;;22.90;3.60;;;6.80;85.60;;;;;;5050536;28;20518;-68
2022/01/31 05:03:17;;;;;;;10.77;2.20;;;6.80;85.30;;;;;;5050067;28;20033;-68
2022/01/31 05:05:43;;;;;;;12.50;2.40;;;6.80;85.20;;;;;;5048961;28;20033;-68
2022/01/31 05:08:09;;;;;;;15.10;2.30;;;6.80;85.10;;;;;;5047946;28;20079;-68
2022/01/31 05:10:42;;;;;;;18.27;3.10;;;6.80;85.10;;;;;;5050403;28;20037;-67
2022/01/31 05:13:07;;;;;;;;;;;6.80;85.00;;;;;;5050605;28;20052;-69
2022/01/31 05:15:33;;;;;;;17.30;2.58;;;6.80;85.00;;;;;;5050133;28;19947;-69
2022/01/31 05:17:59;;;;;;;17.33;2.47;;;6.70;84.90;;;;;;5047451;28;20033;-68
2022/01/31 05:20:24;;;;;;;12.07;2.80;;;6.70;84.90;;;;;;5049945;28;20029;-68
2022/01/31 05:22:50;;;;;;;18.00;3.05;;;6.70;84.90;;;;;;5050134;28;20025;-68
2022/01/31 05:25:19;;;;;;;16.48;2.97;;;6.70;84.60;;;;;;5049457;28;20047;-67
2022/01/31 05:27:44;;;;;;;17.27;2.78;;;6.80;84.80;;;;;;5032918;28;20044;-67
2022/01/31 05:30:10;;;;;;;20.20;4.22;;;6.80;84.70;;;;;;5049241;28;20099;-68
2022/01/31 05:32:36;;;;;;;15.82;3.10;;;6.80;84.40;;;;;;5047482;28;20368;-68
2022/01/31 05:35:04;;;;;;;16.73;2.72;;;6.70;84.30;;;;;;5050027;28;20064;-68
2022/01/31 05:37:30;;;;;;;17.25;2.65;;;6.70;84.30;;;;;;5049172;28;20100;-68
2022/01/31 05:39:56;;;;;;;19.00;3.30;;;6.70;84.30;;;;;;5049835;28;20156;-69
2022/01/31 05:42:22;;;;;;;25.23;3.17;;;6.70;84.40;;;;;;5049966;28;20033;-68
2022/01/31 05:44:47;;;;;;;17.52;4.20;;;6.70;84.60;;;;;;5049936;28;20020;-67
2022/01/31 05:47:14;;;;;;;12.48;2.70;;;6.70;84.80;;;;;;5048835;28;20025;-67
2022/01/31 05:49:40;;;;;;;9.25;1.77;;;6.60;85.10;;;;;;5047756;28;20018;-67
2022/01/31 05:52:07;;;;;;;8.10;1.92;;;6.60;85.40;;;;;;5049887;28;20029;-67
2022/01/31 05:54:35;;;;;;;10.40;2.15;;;6.50;85.50;;;;;;5049688;28;20029;-68
2022/01/31 05:57:01;;;;;;;9.07;2.05;;;6.40;85.60;;;;;;5031314;28;20068;-68
2022/01/31 05:59:27;;;;;;;15.48;2.47;;;6.40;85.80;;;;;;5049312;28;20033;-68
2022/01/31 06:01:53;;;;;;;12.23;1.95;;;6.30;85.60;;;;;;5049525;28;20044;-68
2022/01/31 06:04:19;;;;;;;11.35;2.10;;;6.40;85.70;;;;;;5047771;28;20033;-67
2022/01/31 06:06:45;;;;;;;5.63;2.05;;;6.30;85.80;;;;;;5049492;28;20032;-68
2022/01/31 06:09:10;;;;;;;8.15;1.73;;;6.30;85.60;;;;;;5048702;28;20029;-68
2022/01/31 06:11:36;;;;;;;11.43;2.13;;;6.20;85.60;;;;;;5049259;28;20368;-67
2022/01/31 06:14:07;;;;;;;7.25;1.40;;;6.20;85.70;;;;;;5049479;28;20036;-67
2022/01/31 06:16:32;;;;;;;11.48;1.70;;;6.20;85.80;;;;;;5049383;28;20126;-68
2022/01/31 06:18:58;;;;;;;10.40;1.80;;;6.10;85.90;;;;;;5047017;28;20041;-68
2022/01/31 06:21:24;;;;;;;10.27;2.03;;;6.10;86.00;;;;;;5049266;28;20040;-68
2022/01/31 06:23:50;;;;;;;12.27;1.98;;;6.10;86.30;;;;;;5035321;28;20025;-67
2022/01/31 06:26:15;;;;;;;9.13;2.00;;;6.10;86.40;;;;;;5029446;28;20097;-68
2022/01/31 06:28:41;;;;;;;11.15;2.20;;;6.00;86.60;;;;;;5029598;28;20508;-68
2022/01/31 06:31:07;;;;;;;8.93;1.85;;;6.00;87.00;;;;;;5033151;28;20022;-68
2022/01/31 06:33:33;;;;;;;8.55;1.70;;;6.00;87.10;;;;;;5031752;28;20049;-67
2022/01/31 06:36:01;;;;;;;9.90;2.03;;;6.00;87.30;;;;;;5033455;28;20029;-67
2022/01/31 06:38:28;;;;;;;12.00;2.10;;;6.00;87.30;;;;;;5032517;28;20431;-68
2022/01/31 06:40:54;;;;;;;13.00;2.35;;;6.00;87.40;;;;;;5033013;28;20021;-68
2022/01/31 06:43:20;;;;;;;14.23;2.70;;;6.00;87.50;;;;;;5031939;28;20033;-68
2022/01/31 06:45:46;;;;;;;13.00;2.60;;;6.00;87.50;;;;;;5033063;28;20504;-68
2022/01/31 06:48:12;;;;;;;11.88;2.30;;;6.10;87.70;;;;;;5031893;28;20124;-68
2022/01/31 06:50:38;;;;;;;14.00;2.40;;;6.10;87.70;;;;;;5032853;28;20091;-68
2022/01/31 06:53:05;;;;;;;13.85;2.58;;;6.10;87.80;;;;;;5031628;28;20553;-68
2022/01/31 06:55:33;;;;;;;17.52;2.97;;;6.10;87.90;;;;;;5033215;28;20029;-68
2022/01/31 06:58:00;;;;;;;14.30;2.40;;;6.10;87.80;;;;;;5032423;28;20373;-68
2022/01/31 07:00:25;;;;;;;17.15;2.70;;;6.20;87.90;;;;;;5032404;28;20095;-69
2022/01/31 07:02:51;;;;;;;15.70;2.20;;;6.20;87.80;;;;;;5031053;28;20033;-69
2022/01/31 07:05:18;;;;;;;20.10;3.13;;;6.20;87.70;;;;;;5033037;28;20108;-69
2022/01/31 07:07:44;;;;;;;15.18;2.67;;;6.20;87.80;;;;;;5030585;28;20100;-69
2022/01/31 07:10:11;;;;;;;11.18;2.30;;;6.20;87.70;;;;;;5032400;28;20030;-68
2022/01/31 07:12:40;;;;;;;14.15;3.20;;;6.20;87.70;;;;;;5036010;28;20021;-69
2022/01/31 07:15:08;;;;;;;22.90;2.85;;;6.20;87.90;;;;;;5050931;28;20512;-69
2022/01/31 07:17:35;;;;;;;17.73;3.22;;;6.20;87.70;;;;;;5050080;28;20036;-69
2022/01/31 07:20:06;;;;;;;13.60;2.17;;;6.20;87.70;;;;;;5052555;28;20028;-69
2022/01/31 07:22:36;;;;;;;13.93;2.67;;;6.20;87.80;;;;;;5052278;28;20029;-69
2022/01/31 07:25:08;;;;;;;10.77;2.20;;;6.20;87.70;;;;;;5052430;28;20033;-70
2022/01/31 07:27:34;;;;;;;14.05;2.15;;;6.20;88.00;;;;;;5051901;28;20029;-70
2022/01/31 07:29:59;;;;;;;15.68;2.67;;;6.20;87.90;;;;;;5052295;28;20135;-70
2022/01/31 07:32:25;;;;;;;13.25;2.15;;;6.20;87.90;;;;;;5051993;28;20082;-70
2022/01/31 07:34:55;;;;;;;15.57;3.10;;;6.20;87.90;;;;;;5050380;28;20059;-70
2022/01/31 07:37:25;;;;;;;15.73;2.65;;;6.20;87.80;;;;;;5051676;28;20025;-70
2022/01/31 07:39:50;;;;;;;11.77;2.13;;;6.20;88.00;;;;;;5051513;28;20021;-69
2022/01/31 07:42:17;;;;;;;13.45;2.33;;;6.10;88.10;;;;;;5050516;28;20037;-69
2022/01/31 07:44:43;;;;;;;11.00;1.98;;;6.10;88.30;;;;;;5052074;28;20032;-70
2022/01/31 07:47:09;;;;;;;10.90;1.77;;;6.10;88.30;;;;;;5051656;28;20037;-70
2022/01/31 07:49:35;;;;;;;14.15;2.60;;;6.20;88.30;;;;;;5049910;28;20392;-70
2022/01/31 07:52:01;;;;;;;16.70;2.65;;;6.20;88.40;;;;;;5051866;28;20025;-70
2022/01/31 07:54:27;;;;;;;13.48;2.28;;;6.20;88.30;;;;;;5051464;28;20029;-69
2022/01/31 07:56:53;;;;;;;16.63;2.70;;;6.20;88.40;;;;;;5050234;28;20480;-69
2022/01/31 07:59:19;;;;;;;15.63;2.58;;;6.20;88.50;;;;;;5052193;28;20036;-69
2022/01/31 08:01:45;;;;;;;13.77;2.05;;;6.20;88.30;;;;;;5049986;28;20104;-69
2022/01/31 08:04:11;;;;;;;16.35;2.95;;;6.20;88.20;;;;;;5049393;28;20074;-69
2022/01/31 08:06:37;;;;;;;13.95;2.40;;;6.20;88.40;;;;;;5051526;28;20025;-69
2022/01/31 08:09:06;;;;;;;18.02;3.72;;;6.20;88.30;;;;;;5050769;28;20040;-69
2022/01/31 08:11:34;;;;;;;13.25;2.10;;;6.20;88.40;;;;;;5051530;28;20047;-69
2022/01/31 08:14:05;;;;;;;18.98;2.67;;;6.20;88.50;;;;;;5051406;28;20074;-68
2022/01/31 08:16:34;;;;;;;13.02;2.50;;;6.20;88.40;;;;;;5051674;28;20578;-69
2022/01/31 08:19:01;;;;;;;16.13;2.55;;;6.20;88.50;;;;;;5050477;28;20060;-69
2022/01/31 08:21:26;;;;;;;17.27;3.20;;;6.20;88.50;;;;;;5049861;28;20044;-69
2022/01/31 08:23:53;;;;;;;15.95;2.33;;;6.20;88.50;;;;;;5049521;28;20123;-69
2022/01/31 08:26:20;;;;;;;18.02;2.92;;;6.20;88.60;;;;;;5050150;28;20029;-69
2022/01/31 08:28:59;;;;;;;21.75;3.90;;;6.20;88.70;;;;;;5050756;28;20124;-69
2022/01/31 08:31:34;;;;;;;14.27;2.65;;;6.20;88.70;;;;;;5051070;28;20100;-69
2022/01/31 08:36:42;;;;;;;16.15;3.22;;;6.20;88.70;;;;;;5049936;28;20043;-69
2022/01/31 08:39:15;;;;;;;24.42;3.28;;;6.20;88.70;;;;;;5031992;28;20029;-69
2022/01/31 08:41:43;;;;;;;20.30;3.17;;;6.30;88.80;;;;;;5050074;28;20025;-69
2022/01/31 08:44:12;;;;;;;16.42;2.88;;;6.30;88.70;;;;;;5049339;28;20037;-70
2022/01/31 08:46:39;;;;;;;15.50;2.65;;;6.30;88.40;;;;;;5048600;28;20029;-69
2022/01/31 08:49:06;;;;;;;19.98;3.08;;;6.30;88.40;;;;;;5050041;28;20044;-68
2022/01/31 08:51:32;;;;;;;19.80;3.63;;;6.30;88.50;;;;;;5049640;28;20383;-68
2022/01/31 08:53:58;;;;;;;16.90;2.33;;;6.30;88.40;;;;;;5050259;28;20025;-69
2022/01/31 08:56:23;;;;;;;21.67;3.67;;;6.30;88.50;;;;;;5050303;28;20037;-69
2022/01/31 08:58:49;;;;;;;19.15;3.45;;;6.30;88.70;;;;;;5048368;28;20499;-68
2022/01/31 09:01:22;;;;;;;24.65;3.70;;;6.30;88.50;;;;;;5048948;28;20029;-68
2022/01/31 09:06:22;;;;;;;27.60;4.72;;;6.30;88.50;;;;;;5049929;28;20404;-68
2022/01/31 09:08:48;;;;;;;24.13;3.65;;;6.30;88.70;;;;;;5039796;28;20136;-69
2022/01/31 09:11:14;;;;;;;25.23;3.80;;;6.30;88.70;;;;;;5049502;28;20111;-69
2022/01/31 09:13:40;;;;;;;25.30;5.18;;;6.40;88.70;;;;;;5049403;28;20034;-69
2022/01/31 09:16:07;;;;;;;22.75;3.90;;;6.30;88.60;;;;;;5050213;28;20032;-69
2022/01/31 09:18:33;;;;;;;19.25;3.70;;;6.30;88.60;;;;;;5048069;28;20036;-68
2022/01/31 09:20:59;;;;;;;23.25;4.68;;;6.40;88.70;;;;;;5050554;28;20033;-69
2022/01/31 09:23:26;;;;;;;24.38;3.40;;;6.40;88.70;;;;;;5049445;28;20488;-68
2022/01/31 09:25:52;;;;;;;30.77;4.65;;;6.40;88.80;;;;;;5049665;28;20484;-68
2022/01/31 09:28:18;;;;;;;22.60;4.07;;;6.40;88.90;;;;;;5048892;28;20506;-69
2022/01/31 09:30:45;;;;;;;24.17;4.47;;;6.30;88.80;;;;;;5048830;28;20033;-69
2022/01/31 09:33:12;;;;;;;27.15;4.18;;;6.30;88.80;;;;;;5047483;28;20060;-69
2022/01/31 09:35:38;;;;;;;24.38;5.05;;;6.30;89.00;;;;;;5048497;28;20033;-69
2022/01/31 09:38:05;;;;;;;20.27;3.72;;;6.30;89.20;;;;;;5047047;28;20020;-69
2022/01/31 09:40:32;;;;;;;25.05;3.70;;;6.30;89.40;;;;;;5045662;28;20421;-69
2022/01/31 09:51:07;;;;;;;28.45;4.28;;;6.40;89.50;;;;;;5049478;28;20484;-69
2022/01/31 09:53:36;;;;;;;28.30;4.05;;;6.40;89.50;;;;;;5047566;28;20017;-69
2022/01/31 09:56:03;;;;;;;27.05;4.18;;;6.40;89.30;;;;;;5049615;28;20040;-69
2022/01/31 09:58:31;;;;;;;28.70;5.32;;;6.40;89.20;;;;;;5049181;28;20388;-69
2022/01/31 10:01:12;;;;;;;24.75;4.07;;;6.40;89.00;;;;;;5048898;28;20108;-69
2022/01/31 10:04:14;;;;;;;26.08;4.65;;;6.40;88.90;;;;;;5048582;28;20025;-68
2022/01/31 10:06:43;;;;;;;25.05;4.88;;;6.50;89.20;;;;;;5043362;28;20069;-69
2022/01/31 10:09:21;;;;;;;29.08;4.63;;;6.40;89.10;;;;;;5049097;28;20053;-68
2022/01/31 10:12:21;;;;;;;28.65;4.43;;;6.40;89.20;;;;;;5049256;28;20044;-69
2022/01/31 10:17:40;;;;;;;23.75;5.22;;;6.40;89.40;;;;;;5034873;28;20048;-68
2022/01/31 10:20:17;;;;;;;25.23;5.68;;;6.40;89.70;;;;;;5048609;28;20052;-68
2022/01/31 10:22:43;;;;;;;30.35;5.88;;;6.40;89.80;;;;;;5047068;28;20147;-68
2022/01/31 10:25:13;;;;;;;33.40;5.22;;;6.40;89.70;;;;;;5042510;28;20036;-68
2022/01/31 10:27:39;;;;;;;24.73;4.25;;;6.40;90.10;;;;;;5043085;28;20037;-68
2022/01/31 10:30:30;;;;;;;32.78;5.47;;;6.40;89.10;;;;;;5079144;27;20896;-68
2022/01/31 10:32:58;;;;;;;35.08;4.90;;;6.50;89.40;;;;;;5077816;28;20035;-67
2022/01/31 10:35:28;;;;;;;28.55;4.68;;;6.40;89.30;;;;;;5071338;28;20094;-68
2022/01/31 10:38:01;;;;;;;31.48;4.80;;;6.40;89.50;;;;;;5079802;28;20631;-67
2022/01/31 10:51:56;;;;;;;34.95;5.85;;;6.50;89.10;;;;;;5076545;28;20043;-68
2022/01/31 10:56:24;;;;;;;30.20;4.80;;;6.50;89.00;;;;;;5079058;28;20025;-68
2022/01/31 10:59:02;;;;;;;40.40;5.53;;;6.50;89.10;;;;;;5074809;28;20031;-67
2022/01/31 11:01:29;;;;;;;28.75;4.60;;;6.60;89.30;;;;;;5074638;28;20029;-67
2022/01/31 11:03:56;;;;;;;29.02;5.07;;;6.60;89.30;;;;;;5084351;28;20063;-67
2022/01/31 11:06:23;;;;;;;33.50;5.55;;;6.60;89.40;;;;;;5080946;28;20043;-67
2022/01/31 11:08:51;;;;;;;23.00;3.88;;;6.60;89.30;;;;;;5079190;28;20119;-67
2022/01/31 11:11:20;;;;;;;22.50;4.28;;;6.60;89.10;;;;;;5066398;28;20020;-67
2022/01/31 11:13:48;;;;;;;27.60;4.22;;;6.60;88.90;;;;;;5066827;28;20395;-67
2022/01/31 11:16:15;;;;;;;26.77;5.05;;;6.60;89.00;;;;;;5063641;28;20081;-67
2022/01/31 11:18:43;;;;;;;24.02;4.10;;;6.60;89.00;;;;;;5083227;28;20450;-67
2022/01/31 11:21:11;;;;;;;22.02;4.20;;;6.60;89.10;;;;;;5074784;28;20483;-67
2022/01/31 11:23:42;;;;;;;25.20;4.63;;;6.70;89.20;;;;;;5073692;28;20367;-67
2022/01/31 11:26:11;;;;;;;23.90;3.85;;;6.70;89.20;;;;;;5068387;28;20378;-67
2022/01/31 11:28:40;;;;;;;20.95;3.85;;;6.70;89.20;;;;;;5074670;28;20045;-67
2022/01/31 11:31:06;;;;;;;17.85;3.00;;;6.70;88.90;;;;;;5078224;28;20039;-67
2022/01/31 11:33:35;;;;;;;21.40;3.15;;;6.70;88.90;;;;;;5083468;28;20024;-68
2022/01/31 11:36:02;;;;;;;12.98;2.67;;;6.70;89.00;;;;;;5068016;28;20488;-68
2022/01/31 11:38:28;;;;;;;18.92;3.05;;;6.60;89.10;;;;;;5074251;28;20036;-67
2022/01/31 11:41:03;;;;;;;16.67;2.90;;;6.70;89.10;;;;;;5058120;28;20167;-68
2022/01/31 11:43:31;;;;;;;18.08;3.15;;;6.60;89.00;;;;;;5068746;28;20277;-67
2022/01/31 11:46:00;;;;;;;18.23;2.70;;;6.60;89.30;;;;;;5069299;28;20047;-67
2022/01/31 11:48:29;;;;;;;20.75;4.38;;;6.60;89.60;;;;;;5067206;28;20029;-68
2022/01/31 11:50:57;;;;;;;12.98;2.80;;;6.60;89.80;;;;;;5067078;28;20055;-68
2022/01/31 11:53:41;;;;;;;19.83;4.25;;;6.60;90.00;;;;;;5068962;28;20025;-67
2022/01/31 11:56:20;;;;;;;16.58;3.83;;;6.60;90.10;;;;;;5054147;28;20039;-68
2022/01/31 11:58:52;;;;;;;24.25;4.15;;;6.60;90.20;;;;;;5065678;28;20024;-68
2022/01/31 12:01:22;;;;;;;20.65;3.50;;;6.60;90.20;;;;;;5066434;28;20052;-68
2022/01/31 12:03:53;;;;;;;17.75;3.60;;;6.60;90.20;;;;;;5070183;28;20468;-68
2022/01/31 12:06:27;;;;;;;25.13;3.80;;;6.60;90.20;;;;;;5065857;28;20039;-68
2022/01/31 12:09:02;;;;;;;17.52;3.22;;;6.60;90.30;;;;;;5068218;28;20387;-68
2022/01/31 12:11:30;;;;;;;22.58;3.67;;;6.60;90.30;;;;;;5067785;28;20047;-68
2022/01/31 12:14:00;;;;;;;22.48;3.55;;;6.60;90.20;;;;;;5055612;28;20399;-68
2022/01/31 12:22:10;;;;;;;25.45;4.30;;;6.70;90.20;;;;;;5054934;28;20039;-68
2022/01/31 12:24:44;;;;;;;21.42;4.35;;;6.70;90.20;;;;;;5069924;28;20028;-68
2022/01/31 12:27:19;;;;;;;27.67;4.10;;;6.70;90.10;;;;;;5066800;28;20032;-68
2022/01/31 12:29:51;;;;;;;21.75;3.90;;;6.70;90.10;;;;;;5066461;28;20060;-69
2022/01/31 12:32:20;;;;;;;23.08;4.07;;;6.70;90.20;;;;;;5069292;28;20059;-70
2022/01/31 12:34:58;;;;;;;19.52;3.60;;;6.70;90.20;;;;;;5064226;28;20474;-68
2022/01/31 12:37:31;;;;;;;21.80;4.05;;;6.70;90.20;;;;;;5057934;28;20025;-69
2022/01/31 12:40:03;;;;;;;22.35;3.88;;;6.80;90.20;;;;;;5070079;28;20166;-69
2022/01/31 12:45:31;;;;;;;21.20;3.55;;;6.80;90.30;;;;;;5070411;28;20410;-67
2022/01/31 12:48:09;;;;;;;24.85;3.90;;;6.80;90.30;;;;;;5065231;28;20028;-67
2022/01/31 12:50:48;;;;;;;17.10;3.60;;;6.80;90.40;;;;;;5060528;28;20025;-66
2022/01/31 12:53:23;;;;;;;17.70;3.80;;;6.80;90.40;;;;;;5068484;28;20407;-67
2022/01/31 12:56:14;;;;;;;20.38;3.80;;;6.80;90.50;;;;;;5056164;28;20021;-67
2022/01/31 12:58:46;;;;;;;16.48;3.92;;;6.80;90.60;;;;;;5060778;28;20035;-66
2022/01/31 13:01:22;;;;;;;25.10;4.60;;;6.80;90.60;;;;;;5051332;28;20053;-68
2022/01/31 13:03:51;;;;;;;22.77;3.97;;;6.80;90.60;;;;;;5059475;28;20389;-68
2022/01/31 13:06:47;;;;;;;21.75;3.63;;;6.80;90.60;;;;;;5064246;28;20039;-68
2022/01/31 13:09:30;;;;;;;27.52;4.07;;;6.80;90.60;;;;;;5063425;28;20424;-69
2022/01/31 13:12:05;;;;;;;24.08;4.03;;;6.80;90.60;;;;;;5052794;28;20016;-68
2022/01/31 13:14:37;;;;;;;22.10;4.15;;;6.80;90.60;;;;;;5059588;28;20028;-68
2022/01/31 13:17:26;;;;;;;23.47;4.67;;;6.80;90.60;;;;;;5053242;28;20376;-67
2022/01/31 13:20:00;;;;;;;24.95;4.10;;;6.80;90.50;;;;;;5065531;28;20275;-68
2022/01/31 13:22:39;;;;;;;33.03;4.75;;;6.80;90.50;;;;;;5067912;28;20024;-68
2022/01/31 13:25:08;;;;;;;25.83;4.97;;;6.90;90.50;;;;;;5063802;28;20086;-68
2022/01/31 13:27:41;;;;;;;20.13;4.32;;;6.90;90.50;;;;;;5064293;28;20031;-68
2022/01/31 13:30:08;;;;;;;17.17;4.30;;;6.90;90.50;;;;;;5065913;28;20040;-68
2022/01/31 13:32:35;;;;;;;18.05;3.53;;;6.90;90.40;;;;;;5065308;28;20032;-68